createdAt,value
2022-11-05T00:01:59.206Z,63.99
2022-11-05T00:07:26.876Z,63.67
2022-11-05T00:12:47.719Z,64.27
2022-11-05T00:17:49.700Z,65.21
2022-11-05T00:23:10.461Z,64.72
2022-11-05T00:28:12.446Z,64.88
2022-11-05T00:33:14.942Z,65.12
2022-11-05T00:38:16.869Z,65.21
2022-11-05T00:43:37.673Z,65.86
2022-11-05T00:48:58.210Z,65.83
2022-11-05T00:54:00.782Z,65.87
2022-11-05T00:59:03.017Z,66.12
2022-11-05T01:04:05.403Z,66.41
2022-11-05T01:09:07.367Z,66.65
2022-11-05T01:14:12.150Z,67.19
2022-11-05T01:19:14.075Z,67.30
2022-11-05T01:24:15.963Z,67.20
2022-11-05T01:29:18.049Z,67.21
2022-11-05T01:34:19.899Z,67.46
2022-11-05T01:39:21.786Z,68.08
2022-11-05T01:44:56.180Z,68.18
2022-11-05T01:50:00.590Z,68.55
2022-11-05T01:55:03.571Z,68.75
2022-11-05T02:00:06.683Z,68.78
2022-11-05T02:05:15.410Z,68.61
2022-11-05T02:10:20.419Z,68.68
2022-11-05T02:15:36.817Z,69.01
2022-11-05T02:20:53.512Z,69.11
2022-11-05T02:26:23.114Z,69.28
2022-11-05T02:31:36.934Z,69.34
2022-11-05T02:36:55.717Z,69.34
2022-11-05T02:42:15.466Z,69.59
2022-11-05T02:47:43.427Z,69.49
2022-11-05T02:53:07.627Z,69.33
2022-11-05T02:58:09.746Z,69.76
2022-11-05T03:03:30.169Z,69.98
2022-11-05T03:08:47.234Z,69.99
2022-11-05T03:14:16.476Z,69.72
2022-11-05T03:19:28.032Z,69.85
2022-11-05T03:24:33.552Z,70.21
2022-11-05T03:29:39.611Z,70.39
2022-11-05T03:34:50.482Z,70.43
2022-11-05T03:39:55.321Z,70.20
2022-11-05T03:44:59.184Z,70.07
2022-11-05T03:50:22.173Z,70.13
2022-11-05T03:55:27.928Z,70.17
2022-11-05T04:00:29.910Z,70.26
2022-11-05T04:05:31.987Z,70.15
2022-11-05T04:10:52.584Z,70.97
2022-11-05T04:16:14.517Z,70.74
2022-11-05T04:21:35.581Z,70.99
2022-11-05T04:26:40.079Z,70.89
2022-11-05T04:31:42.161Z,70.73
2022-11-05T04:36:43.951Z,70.82
2022-11-05T04:41:48.309Z,70.86
2022-11-05T04:46:50.146Z,70.70
2022-11-05T04:51:51.943Z,70.85
2022-11-05T04:56:53.775Z,70.30
2022-11-05T05:01:55.834Z,70.17
2022-11-05T05:06:57.749Z,70.29
2022-11-05T05:11:59.635Z,70.63
2022-11-05T05:17:01.511Z,70.94
2022-11-05T05:22:03.456Z,71.52
2022-11-05T05:27:05.411Z,71.65
2022-11-05T05:32:07.506Z,71.69
2022-11-05T05:37:10.614Z,71.82
2022-11-05T05:42:13.157Z,71.77
2022-11-05T05:47:15.016Z,71.74
2022-11-05T05:52:16.869Z,71.91
2022-11-05T05:57:18.730Z,72.36
2022-11-05T06:02:20.786Z,72.59
2022-11-05T06:07:22.880Z,72.72
2022-11-05T06:12:24.679Z,72.92
2022-11-05T06:17:26.525Z,72.74
2022-11-05T06:22:28.418Z,72.74
2022-11-05T06:27:30.336Z,72.93
2022-11-05T06:32:32.247Z,72.89
2022-11-05T06:37:34.263Z,72.71
2022-11-05T06:42:36.246Z,72.90
2022-11-05T06:47:38.358Z,73.13
2022-11-05T06:52:41.381Z,73.14
2022-11-05T06:57:43.331Z,72.84
2022-11-05T07:02:45.707Z,72.86
2022-11-05T07:07:47.670Z,72.87
2022-11-05T07:12:49.506Z,73.13
2022-11-05T07:17:51.344Z,73.19
2022-11-05T07:23:01.776Z,73.22
2022-11-05T07:28:04.518Z,72.81
2022-11-05T07:33:06.608Z,72.76
2022-11-05T07:38:08.651Z,72.37
2022-11-05T07:43:10.797Z,72.02
2022-11-05T07:48:12.760Z,71.80
2022-11-05T07:53:15.204Z,71.84
2022-11-05T07:58:27.065Z,71.45
2022-11-05T08:03:29.222Z,71.59
2022-11-05T08:08:31.251Z,71.98
2022-11-05T08:13:33.946Z,71.96
2022-11-05T08:18:36.111Z,72.30
2022-11-05T08:23:39.428Z,71.29
2022-11-05T08:28:41.284Z,70.31
2022-11-05T08:33:43.151Z,70.35
2022-11-05T08:38:45.051Z,70.10
2022-11-05T08:43:46.931Z,69.95
2022-11-05T08:48:48.864Z,69.08
2022-11-05T08:53:50.722Z,67.66
2022-11-05T08:58:52.687Z,67.05
2022-11-05T09:03:54.601Z,62.60
2022-11-05T09:08:56.777Z,58.48
2022-11-05T09:13:58.633Z,55.65
2022-11-05T09:19:02.374Z,51.85
2022-11-05T09:24:04.636Z,49.44
2022-11-05T09:29:09.235Z,49.29
2022-11-05T09:34:15.490Z,48.82
2022-11-05T09:39:17.355Z,47.67
2022-11-05T09:44:23.067Z,47.44
2022-11-05T09:49:29.416Z,46.32
2022-11-05T09:54:32.155Z,46.12
2022-11-05T09:59:40.871Z,45.78
2022-11-05T10:04:50.141Z,45.20
2022-11-05T10:09:56.054Z,43.75
2022-11-05T10:15:13.263Z,43.76
2022-11-05T10:20:23.728Z,43.46
2022-11-05T10:25:30.223Z,40.58
2022-11-05T10:30:32.377Z,41.42
2022-11-05T10:35:36.163Z,40.19
2022-11-05T10:41:04.381Z,40.17
2022-11-05T10:46:06.415Z,38.71
2022-11-05T10:51:08.940Z,40.28
2022-11-05T10:56:31.390Z,42.06
2022-11-05T11:01:33.579Z,42.75
2022-11-05T11:06:38.071Z,44.21
2022-11-05T11:11:42.666Z,44.87
2022-11-05T11:16:46.634Z,45.72
2022-11-05T11:22:09.504Z,46.14
2022-11-05T11:27:16.568Z,46.90
2022-11-05T11:32:20.616Z,47.21
2022-11-05T11:37:34.390Z,47.28
2022-11-05T11:42:40.477Z,46.07
2022-11-05T11:47:46.357Z,46.27
2022-11-05T11:52:48.247Z,46.26
2022-11-05T11:57:53.736Z,46.57
2022-11-05T12:03:17.152Z,47.30
2022-11-05T12:08:36.180Z,47.74
2022-11-05T12:13:52.830Z,48.81
2022-11-05T12:19:06.817Z,47.55
2022-11-05T12:24:24.150Z,47.08
2022-11-05T12:29:42.669Z,45.73
2022-11-05T12:34:47.752Z,45.39
2022-11-05T12:39:52.258Z,44.66
2022-11-05T12:44:54.097Z,46.16
2022-11-05T12:50:17.024Z,44.66
2022-11-05T12:55:34.011Z,45.01
2022-11-05T13:00:37.263Z,43.83
2022-11-05T13:05:46.436Z,44.21
2022-11-05T13:11:12.163Z,44.69
2022-11-05T13:16:23.030Z,44.65
2022-11-05T13:21:28.599Z,42.45
2022-11-05T13:26:50.534Z,45.07
2022-11-05T13:31:58.891Z,43.90
2022-11-05T13:37:22.665Z,44.44
2022-11-05T13:42:39.475Z,42.76
2022-11-05T13:47:59.620Z,42.45
2022-11-05T13:53:13.740Z,42.89
2022-11-05T13:58:31.053Z,43.49
2022-11-05T14:03:33.166Z,44.70
2022-11-05T14:08:43.364Z,43.84
2022-11-05T14:13:46.003Z,43.60
2022-11-05T14:19:14.931Z,44.92
2022-11-05T14:24:23.024Z,43.83
2022-11-05T14:29:25.103Z,43.50
2022-11-05T14:34:47.379Z,42.25
2022-11-05T14:39:49.423Z,40.75
2022-11-05T14:45:20.562Z,42.54
2022-11-05T14:50:28.006Z,43.79
2022-11-05T14:55:33.490Z,41.42
2022-11-05T15:00:36.887Z,44.93
2022-11-05T15:05:50.379Z,45.68
2022-11-05T15:10:54.883Z,44.22
2022-11-05T15:15:56.958Z,43.56
2022-11-05T15:21:01.492Z,44.04
2022-11-05T15:26:06.269Z,43.20
2022-11-05T15:31:13.998Z,44.01
2022-11-05T15:36:29.809Z,44.91
2022-11-05T15:41:34.498Z,45.68
2022-11-05T15:46:36.824Z,44.58
2022-11-05T15:51:38.785Z,45.42
2022-11-05T15:56:48.418Z,44.42
2022-11-05T16:01:54.121Z,44.85
2022-11-05T16:07:10.423Z,48.03
2022-11-05T16:12:18.847Z,48.93
2022-11-05T16:17:23.368Z,51.22
2022-11-05T16:22:25.705Z,53.73
2022-11-05T16:27:27.876Z,53.18
2022-11-05T16:32:31.563Z,53.00
2022-11-05T16:37:41.359Z,55.02
2022-11-05T16:42:43.950Z,56.24
2022-11-05T16:47:46.584Z,56.31
2022-11-05T16:52:48.673Z,54.72
2022-11-05T16:57:53.656Z,55.05
2022-11-05T17:02:55.860Z,55.57
2022-11-05T17:07:58.346Z,54.60
2022-11-05T17:13:00.379Z,55.48
2022-11-05T17:18:03.637Z,56.40
2022-11-05T17:23:06.250Z,54.23
2022-11-05T17:28:09.353Z,55.94
2022-11-05T17:33:12.825Z,55.13
2022-11-05T17:38:15.262Z,56.15
2022-11-05T17:43:17.693Z,55.82
2022-11-05T17:48:20.615Z,56.50
2022-11-05T17:53:22.692Z,56.57
2022-11-05T17:58:24.762Z,57.36
2022-11-05T18:03:26.745Z,57.98
2022-11-05T18:08:28.903Z,59.25
2022-11-05T18:13:30.794Z,58.69
2022-11-05T18:18:32.813Z,58.08
2022-11-05T18:23:34.662Z,58.54
2022-11-05T18:28:36.862Z,58.66
2022-11-05T18:33:38.697Z,59.23
2022-11-05T18:38:40.823Z,61.22
2022-11-05T18:43:43.094Z,60.57
2022-11-05T18:48:45.223Z,61.59
2022-11-05T18:53:47.351Z,61.64
2022-11-05T18:58:50.580Z,62.12
2022-11-05T19:03:54.590Z,61.64
2022-11-05T19:08:57.368Z,60.28
2022-11-05T19:14:00.400Z,60.38
2022-11-05T19:19:04.302Z,60.14
2022-11-05T19:24:06.487Z,60.76
2022-11-05T19:29:08.406Z,60.49
2022-11-05T19:34:10.760Z,61.01
2022-11-05T19:39:14.702Z,61.63
2022-11-05T19:44:16.637Z,61.34
2022-11-05T19:49:18.579Z,63.13
2022-11-05T19:54:20.849Z,63.03
2022-11-05T19:59:22.860Z,63.10
2022-11-05T20:04:24.967Z,63.15
2022-11-05T20:09:26.877Z,62.95
2022-11-05T20:14:29.779Z,63.28
2022-11-05T20:19:31.898Z,63.51
2022-11-05T20:24:33.832Z,64.84
2022-11-05T20:29:36.098Z,64.40
2022-11-05T20:34:38.581Z,64.75
2022-11-05T20:39:41.084Z,64.98
2022-11-05T20:44:43.834Z,65.57
2022-11-05T20:49:45.757Z,66.42
2022-11-05T20:54:48.271Z,65.82
2022-11-05T20:59:50.247Z,66.31
2022-11-05T21:04:52.237Z,65.90
2022-11-05T21:09:54.122Z,65.85
2022-11-05T21:14:56.353Z,66.68
2022-11-05T21:19:58.350Z,66.80
2022-11-05T21:25:00.656Z,66.59
2022-11-05T21:30:03.638Z,66.91
2022-11-05T21:35:05.823Z,67.45
2022-11-05T21:40:08.503Z,67.57
2022-11-05T21:45:11.124Z,67.33
2022-11-05T21:50:17.076Z,67.33
2022-11-05T21:55:40.274Z,67.53
2022-11-05T22:00:42.241Z,67.75
2022-11-05T22:05:44.581Z,67.67
2022-11-05T22:10:47.737Z,68.02
2022-11-05T22:15:56.635Z,68.23
2022-11-05T22:20:58.459Z,68.04
2022-11-05T22:26:01.793Z,68.39
2022-11-05T22:31:03.762Z,68.71
2022-11-05T22:36:06.048Z,68.84
2022-11-05T22:41:13.357Z,68.96
2022-11-05T22:46:18.265Z,69.30
2022-11-05T22:51:21.353Z,69.32
2022-11-05T22:56:26.692Z,69.27
2022-11-05T23:01:29.083Z,69.47
2022-11-05T23:06:51.241Z,69.75
2022-11-05T23:11:53.918Z,69.87
2022-11-05T23:17:14.409Z,70.31
2022-11-05T23:22:39.362Z,70.73
2022-11-05T23:27:41.704Z,70.85
2022-11-05T23:32:43.992Z,71.38
2022-11-05T23:38:04.709Z,71.49
2022-11-05T23:43:25.586Z,71.11
2022-11-05T23:48:36.991Z,71.58
2022-11-05T23:53:40.583Z,71.73
2022-11-05T23:58:43.001Z,71.91
